Terminal Aerodrome Forecast
Issued by NWS Memphis, TN

Home | Current Version | Previous Version | Text Only | Print | Product List | Glossary On
Versions: 1 2 3 4 5 6 7 8 9 10 11 12 13 14 15 16 17 18 19 20 21 22 23 24 25
000
FTUS44 KMEG 182100 AAA
TAFMEM
TAF AMD
KMEM 182120Z 1821/1918 08007KT P6SM BKN060 BKN100
     FM182300 06004KT P6SM SCT060
     FM190600 03003KT P6SM SKC
     FM191500 04008KT P6SM SKC=

USA.gov is the U.S. government's official web portal to all federal, state and local government web resources and services.